createdAt,value
2019-04-27T00:01:55.288Z,48.50
2019-04-27T00:05:32.280Z,48.30
2019-04-27T00:08:39.121Z,48.10
2019-04-27T00:11:49.477Z,48.20
2019-04-27T00:14:55.959Z,48.10
2019-04-27T00:18:09.440Z,48.20
2019-04-27T00:21:30.453Z,48.80
2019-04-27T00:24:35.797Z,48.90
2019-04-27T00:27:40.851Z,49.20
2019-04-27T00:30:46.026Z,49.40
2019-04-27T00:33:51.081Z,49.40
2019-04-27T00:37:08.719Z,49.40
2019-04-27T00:40:24.403Z,49.40
2019-04-27T00:43:29.351Z,49.60
2019-04-27T00:46:34.438Z,48.90
2019-04-27T00:49:39.404Z,49.00
2019-04-27T00:52:44.246Z,48.60
2019-04-27T00:56:09.044Z,48.50
2019-04-27T00:59:32.984Z,48.20
2019-04-27T01:02:55.139Z,48.70
2019-04-27T01:06:00.421Z,48.50
2019-04-27T01:09:08.463Z,48.20
2019-04-27T01:12:14.336Z,47.90
2019-04-27T01:15:19.246Z,47.50
2019-04-27T01:18:24.244Z,47.70
2019-04-27T01:21:29.617Z,48.50
2019-04-27T01:24:34.549Z,48.10
2019-04-27T01:28:03.385Z,47.50
2019-04-27T01:31:10.994Z,47.80
2019-04-27T01:34:15.876Z,49.40
2019-04-27T01:37:21.213Z,49.80
2019-04-27T01:40:26.181Z,50.40
2019-04-27T01:43:31.236Z,51.60
2019-04-27T01:46:36.308Z,53.10
2019-04-27T01:49:41.295Z,54.80
2019-04-27T01:52:46.398Z,55.20
2019-04-27T01:55:51.361Z,55.00
2019-04-27T01:58:56.470Z,55.60
2019-04-27T02:02:20.328Z,54.80
2019-04-27T02:05:56.501Z,55.60
2019-04-27T02:09:01.545Z,55.30
2019-04-27T02:12:06.859Z,57.00
2019-04-27T02:15:12.677Z,58.10
2019-04-27T02:18:19.313Z,58.80
2019-04-27T02:21:24.496Z,58.70
2019-04-27T02:24:29.670Z,58.60
2019-04-27T02:27:36.394Z,59.40
2019-04-27T02:31:06.034Z,59.70
2019-04-27T02:34:19.678Z,60.50
2019-04-27T02:37:23.536Z,60.70
2019-04-27T02:40:55.381Z,60.80
2019-04-27T02:44:14.808Z,61.30
2019-04-27T02:47:20.763Z,61.20
2019-04-27T02:50:26.170Z,61.20
2019-04-27T02:53:49.817Z,60.30
2019-04-27T02:56:54.883Z,59.30
2019-04-27T03:00:00.247Z,59.00
2019-04-27T03:03:09.989Z,58.30
2019-04-27T03:06:14.012Z,57.80
2019-04-27T03:09:20.505Z,58.00
2019-04-27T03:12:29.628Z,57.70
2019-04-27T03:15:45.398Z,57.50
2019-04-27T03:19:14.977Z,57.00
2019-04-27T03:22:49.939Z,57.00
2019-04-27T03:26:06.163Z,55.60
2019-04-27T03:29:11.230Z,55.90
2019-04-27T03:32:16.454Z,55.70
2019-04-27T03:35:22.949Z,56.00
2019-04-27T03:38:30.117Z,56.50
2019-04-27T03:41:34.996Z,55.50
2019-04-27T03:44:40.875Z,55.80
2019-04-27T03:47:45.918Z,55.40
2019-04-27T03:50:59.490Z,55.10
2019-04-27T03:54:10.734Z,55.20
2019-04-27T03:57:21.320Z,54.80
2019-04-27T04:00:26.610Z,54.70
2019-04-27T04:03:31.925Z,55.20
2019-04-27T04:06:39.702Z,55.40
2019-04-27T04:09:44.026Z,56.20
2019-04-27T04:13:11.969Z,56.50
2019-04-27T04:16:31.905Z,55.60
2019-04-27T04:19:48.847Z,53.90
2019-04-27T04:22:43.436Z,54.00
2019-04-27T04:25:49.917Z,53.70
2019-04-27T04:28:55.333Z,53.40
2019-04-27T04:32:00.671Z,53.00
2019-04-27T04:35:22.437Z,53.10
2019-04-27T04:38:30.212Z,52.90
2019-04-27T04:41:47.153Z,52.60
2019-04-27T04:45:11.143Z,52.40
2019-04-27T04:48:19.993Z,53.00
2019-04-27T04:51:25.366Z,52.80
2019-04-27T04:54:30.537Z,53.10
2019-04-27T04:57:35.379Z,52.70
2019-04-27T05:00:40.836Z,52.70
2019-04-27T05:03:45.672Z,53.30
2019-04-27T05:06:51.839Z,53.30
2019-04-27T05:09:58.641Z,53.30
2019-04-27T05:13:04.034Z,53.70
2019-04-27T05:16:09.067Z,53.30
2019-04-27T05:19:14.029Z,51.50
2019-04-27T05:22:19.525Z,50.70
2019-04-27T05:25:24.591Z,49.70
2019-04-27T05:28:29.951Z,48.20
2019-04-27T05:31:34.822Z,48.10
2019-04-27T05:34:39.748Z,46.50
2019-04-27T05:37:44.750Z,46.10
2019-04-27T05:40:49.891Z,46.50
2019-04-27T05:44:20.777Z,46.90
2019-04-27T05:47:32.562Z,46.40
2019-04-27T05:50:43.123Z,46.60
2019-04-27T05:53:44.359Z,46.60
2019-04-27T05:56:49.596Z,46.50
2019-04-27T05:59:55.007Z,46.50
2019-04-27T06:03:00.125Z,46.80
2019-04-27T06:06:05.302Z,45.90
2019-04-27T06:09:10.271Z,45.30
2019-04-27T06:12:15.118Z,44.80
2019-04-27T06:15:20.210Z,42.10
2019-04-27T06:18:25.461Z,39.10
2019-04-27T06:21:30.462Z,36.40
2019-04-27T06:24:35.556Z,35.50
2019-04-27T06:27:40.543Z,35.60
2019-04-27T06:30:45.443Z,35.60
2019-04-27T06:33:50.347Z,35.60
2019-04-27T06:36:55.248Z,36.70
2019-04-27T06:40:00.198Z,37.60
2019-04-27T06:43:05.327Z,37.50
2019-04-27T06:46:10.286Z,38.40
2019-04-27T06:49:15.179Z,38.10
2019-04-27T06:52:19.933Z,37.70
2019-04-27T06:55:24.965Z,37.30
2019-04-27T06:58:29.640Z,36.00
2019-04-27T07:01:34.360Z,35.10
2019-04-27T07:04:39.361Z,35.60
2019-04-27T07:07:44.284Z,35.80
2019-04-27T07:10:49.349Z,36.10
2019-04-27T07:13:54.645Z,35.70
2019-04-27T07:16:59.784Z,35.50
2019-04-27T07:20:05.002Z,36.40
2019-04-27T07:23:10.269Z,35.30
2019-04-27T07:26:15.136Z,34.80
2019-04-27T07:29:23.019Z,34.50
2019-04-27T07:32:26.752Z,34.70
2019-04-27T07:35:31.953Z,34.40
2019-04-27T07:38:36.925Z,34.80
2019-04-27T07:41:41.858Z,34.80
2019-04-27T07:44:55.643Z,33.00
2019-04-27T07:48:00.816Z,34.10
2019-04-27T07:51:06.009Z,33.90
2019-04-27T07:54:11.011Z,32.80
2019-04-27T07:57:16.041Z,32.10
2019-04-27T08:00:21.408Z,31.60
2019-04-27T08:03:26.582Z,30.00
2019-04-27T08:06:31.669Z,27.70
2019-04-27T08:09:36.870Z,24.50
2019-04-27T08:12:41.961Z,22.80
2019-04-27T08:15:47.145Z,22.60
2019-04-27T08:18:51.999Z,23.90
2019-04-27T08:21:56.957Z,23.30
2019-04-27T08:25:01.958Z,22.00
2019-04-27T08:28:14.597Z,22.20
2019-04-27T08:31:28.545Z,22.60
2019-04-27T08:34:33.562Z,21.40
2019-04-27T08:37:39.015Z,20.10
2019-04-27T08:40:44.219Z,18.20
2019-04-27T08:43:49.141Z,16.20
2019-04-27T08:46:54.187Z,15.20
2019-04-27T08:49:59.249Z,15.40
2019-04-27T08:53:04.173Z,15.80
2019-04-27T08:56:09.355Z,16.00
2019-04-27T08:59:14.493Z,15.30
2019-04-27T09:02:19.800Z,15.30
2019-04-27T09:05:28.914Z,15.10
2019-04-27T09:08:59.393Z,16.20
2019-04-27T09:12:21.869Z,17.00
2019-04-27T09:15:40.808Z,18.50
2019-04-27T09:18:45.718Z,18.70
2019-04-27T09:22:12.412Z,19.40
2019-04-27T09:25:10.509Z,20.70
2019-04-27T09:28:15.492Z,22.10
2019-04-27T09:31:20.623Z,23.20
2019-04-27T09:34:26.074Z,23.20
2019-04-27T09:37:31.125Z,23.50
2019-04-27T09:40:36.282Z,23.80
2019-04-27T09:43:41.098Z,22.90
2019-04-27T09:46:47.529Z,23.40
2019-04-27T09:49:52.674Z,23.70
2019-04-27T09:52:57.705Z,25.10
2019-04-27T09:56:02.695Z,25.80
2019-04-27T09:59:07.766Z,26.20
2019-04-27T10:02:12.823Z,26.70
2019-04-27T10:05:18.341Z,26.20
2019-04-27T10:08:23.395Z,26.40
2019-04-27T10:11:28.523Z,27.10
2019-04-27T10:14:52.269Z,26.80
2019-04-27T10:17:57.843Z,26.30
2019-04-27T10:21:03.279Z,26.10
2019-04-27T10:24:08.213Z,26.40
2019-04-27T10:27:13.486Z,26.10
2019-04-27T10:30:18.771Z,25.90
2019-04-27T10:33:25.725Z,25.90
2019-04-27T10:36:39.915Z,25.70
2019-04-27T10:39:46.159Z,25.20
2019-04-27T10:42:51.470Z,25.20
2019-04-27T10:45:56.636Z,24.90
2019-04-27T10:49:01.931Z,25.50
2019-04-27T10:52:06.984Z,25.20
2019-04-27T10:55:12.764Z,25.10
2019-04-27T10:58:18.076Z,25.00
2019-04-27T11:01:23.297Z,25.50
2019-04-27T11:04:39.877Z,24.60
2019-04-27T11:07:46.267Z,24.20
2019-04-27T11:10:51.410Z,24.60
2019-04-27T11:13:58.307Z,24.70
2019-04-27T11:17:06.262Z,24.80
2019-04-27T11:20:12.450Z,24.80
2019-04-27T11:23:17.378Z,24.20
2019-04-27T11:26:22.359Z,23.90
2019-04-27T11:29:27.742Z,24.30
2019-04-27T11:32:32.829Z,24.40
2019-04-27T11:35:47.074Z,24.20
2019-04-27T11:38:52.833Z,24.30
2019-04-27T11:41:57.765Z,24.50
2019-04-27T11:45:02.674Z,24.10
2019-04-27T11:48:07.826Z,24.10
2019-04-27T11:51:13.040Z,24.20
2019-04-27T11:54:17.996Z,25.00
2019-04-27T11:57:23.122Z,25.90
2019-04-27T12:00:29.715Z,25.70
2019-04-27T12:03:34.698Z,25.80
2019-04-27T12:06:39.847Z,25.20
2019-04-27T12:09:46.215Z,25.30
2019-04-27T12:12:52.196Z,26.10
2019-04-27T12:15:57.489Z,26.50
2019-04-27T12:19:02.504Z,26.40
2019-04-27T12:22:07.753Z,26.80
2019-04-27T12:25:13.180Z,26.50
2019-04-27T12:28:29.726Z,26.20
2019-04-27T12:31:37.597Z,26.20
2019-04-27T12:34:42.589Z,26.20
2019-04-27T12:37:47.735Z,25.80
2019-04-27T12:40:52.725Z,25.20
2019-04-27T12:43:57.836Z,24.90
2019-04-27T12:47:03.141Z,24.70
2019-04-27T12:50:09.919Z,23.90
2019-04-27T12:53:30.428Z,23.90
2019-04-27T12:56:43.658Z,23.90
2019-04-27T13:00:06.815Z,24.10
2019-04-27T13:03:11.961Z,24.50
2019-04-27T13:06:17.182Z,24.60
2019-04-27T13:09:22.202Z,24.90
2019-04-27T13:12:27.426Z,25.50
2019-04-27T13:15:32.452Z,25.70
2019-04-27T13:18:37.618Z,24.70
2019-04-27T13:21:42.748Z,24.10
2019-04-27T13:24:47.809Z,24.30
2019-04-27T13:27:53.016Z,24.60
2019-04-27T13:30:57.986Z,25.10
2019-04-27T13:34:03.102Z,25.00
2019-04-27T13:37:26.957Z,25.30
2019-04-27T13:40:36.090Z,25.00
2019-04-27T13:43:41.414Z,24.00
2019-04-27T13:47:03.959Z,23.90
2019-04-27T13:50:17.967Z,24.00
2019-04-27T13:53:22.808Z,24.00
2019-04-27T13:56:27.871Z,24.00
2019-04-27T13:59:51.778Z,23.90
2019-04-27T14:02:56.773Z,24.50
2019-04-27T14:06:01.758Z,24.20
2019-04-27T14:09:09.258Z,24.60
2019-04-27T14:12:21.785Z,24.20
2019-04-27T14:15:28.781Z,24.50
2019-04-27T14:18:33.306Z,24.80
2019-04-27T14:21:39.258Z,24.50
2019-04-27T14:24:44.369Z,24.80
2019-04-27T14:27:49.428Z,24.80
2019-04-27T14:30:54.426Z,29.20
2019-04-27T14:33:59.424Z,30.70
2019-04-27T14:37:05.515Z,31.50
2019-04-27T14:40:12.279Z,32.30
2019-04-27T14:43:18.899Z,32.40
2019-04-27T14:46:24.086Z,32.80
2019-04-27T14:49:29.117Z,33.60
2019-04-27T14:52:34.205Z,34.00
2019-04-27T14:55:39.124Z,34.70
2019-04-27T14:58:44.033Z,34.70
2019-04-27T15:01:49.113Z,34.70
2019-04-27T15:04:54.381Z,34.80
2019-04-27T15:08:01.641Z,34.80
2019-04-27T15:11:10.208Z,34.80
2019-04-27T15:14:16.260Z,35.30
2019-04-27T15:17:23.199Z,36.20
2019-04-27T15:20:32.817Z,36.30
2019-04-27T15:23:37.925Z,36.50
2019-04-27T15:26:43.212Z,37.80
2019-04-27T15:29:47.940Z,39.20
2019-04-27T15:33:30.071Z,40.10
2019-04-27T15:36:58.325Z,41.40
2019-04-27T15:40:34.414Z,39.70
2019-04-27T15:43:41.034Z,42.50
2019-04-27T15:46:47.849Z,44.90
2019-04-27T15:49:54.535Z,48.20
2019-04-27T15:53:02.816Z,46.10
2019-04-27T15:56:06.588Z,45.10
2019-04-27T15:59:11.641Z,47.50
2019-04-27T16:02:18.459Z,50.20
2019-04-27T16:05:27.804Z,47.00
2019-04-27T16:08:30.198Z,45.20
2019-04-27T16:11:35.190Z,46.00
2019-04-27T16:14:43.924Z,47.80
2019-04-27T16:17:53.349Z,42.50
2019-04-27T16:20:53.889Z,41.70
2019-04-27T16:23:58.916Z,42.20
2019-04-27T16:27:04.283Z,41.10
2019-04-27T16:30:12.806Z,41.00
2019-04-27T16:33:22.097Z,40.50
2019-04-27T16:36:22.822Z,41.10
2019-04-27T16:39:28.702Z,41.20
2019-04-27T16:42:33.657Z,41.60
2019-04-27T16:45:38.943Z,41.00
2019-04-27T16:48:43.943Z,41.70
2019-04-27T16:51:49.380Z,42.70
2019-04-27T16:54:57.331Z,45.30
2019-04-27T16:58:02.107Z,46.30
2019-04-27T17:01:10.867Z,46.60
2019-04-27T17:04:15.836Z,47.80
2019-04-27T17:07:20.989Z,48.10
2019-04-27T17:10:27.090Z,48.00
2019-04-27T17:13:34.499Z,48.20
2019-04-27T17:16:58.306Z,48.20
2019-04-27T17:20:04.181Z,49.00
2019-04-27T17:23:09.480Z,49.10
2019-04-27T17:26:21.886Z,49.60
2019-04-27T17:29:20.995Z,49.70
2019-04-27T17:32:39.046Z,50.20
2019-04-27T17:35:44.405Z,51.30
2019-04-27T17:38:51.100Z,52.20
2019-04-27T17:41:58.531Z,52.80
2019-04-27T17:45:03.149Z,53.50
2019-04-27T17:48:10.827Z,54.60
2019-04-27T17:51:15.303Z,55.60
2019-04-27T17:54:20.603Z,55.80
2019-04-27T17:57:26.634Z,56.30
2019-04-27T18:00:38.740Z,56.70
2019-04-27T18:03:39.088Z,57.40
2019-04-27T18:06:44.259Z,58.10
2019-04-27T18:09:49.204Z,58.40
2019-04-27T18:12:54.348Z,58.80
2019-04-27T18:15:59.588Z,59.50
2019-04-27T18:19:19.745Z,59.80
2019-04-27T18:22:25.046Z,60.20
2019-04-27T18:25:35.729Z,60.90
2019-04-27T18:28:40.167Z,61.50
2019-04-27T18:31:46.380Z,61.80
2019-04-27T18:34:51.946Z,62.80
2019-04-27T18:37:58.364Z,62.40
2019-04-27T18:41:07.890Z,63.00
2019-04-27T18:44:11.191Z,64.20
2019-04-27T18:47:16.406Z,64.10
2019-04-27T18:50:31.246Z,64.70
2019-04-27T18:53:36.424Z,65.70
2019-04-27T18:56:41.861Z,66.20
2019-04-27T18:59:48.282Z,66.80
2019-04-27T19:02:53.168Z,67.30
2019-04-27T19:05:58.296Z,67.90
2019-04-27T19:09:03.664Z,68.50
2019-04-27T19:12:08.626Z,68.50
2019-04-27T19:15:13.612Z,69.10
2019-04-27T19:18:18.961Z,68.50
2019-04-27T19:21:23.970Z,67.80
2019-04-27T19:24:28.902Z,67.80
2019-04-27T19:27:52.743Z,67.60
2019-04-27T19:31:04.641Z,67.50
2019-04-27T19:34:09.845Z,67.40
2019-04-27T19:37:15.227Z,67.90
2019-04-27T19:40:20.304Z,67.70
2019-04-27T19:43:25.441Z,68.20
2019-04-27T19:46:30.622Z,68.30
2019-04-27T19:49:35.601Z,68.40
2019-04-27T19:52:40.707Z,68.40
2019-04-27T19:56:01.655Z,68.00
2019-04-27T19:59:11.805Z,67.60
2019-04-27T20:02:20.318Z,66.90
2019-04-27T20:05:25.631Z,66.60
2019-04-27T20:08:32.889Z,66.70
2019-04-27T20:11:37.949Z,66.40
2019-04-27T20:14:58.232Z,67.60
2019-04-27T20:18:03.179Z,66.80
2019-04-27T20:21:08.258Z,67.00
2019-04-27T20:24:13.182Z,67.20
2019-04-27T20:27:20.927Z,67.40
2019-04-27T20:30:25.669Z,67.70
2019-04-27T20:33:31.181Z,68.60
2019-04-27T20:36:36.354Z,68.60
2019-04-27T20:39:42.906Z,69.20
2019-04-27T20:42:47.990Z,69.20
2019-04-27T20:45:52.880Z,69.30
2019-04-27T20:48:58.001Z,69.20
2019-04-27T20:52:21.963Z,69.30
2019-04-27T20:55:26.924Z,69.60
2019-04-27T20:58:31.885Z,69.70
2019-04-27T21:01:36.824Z,69.90
2019-04-27T21:04:43.606Z,70.80
2019-04-27T21:07:52.867Z,71.30
2019-04-27T21:10:57.744Z,71.90
2019-04-27T21:14:02.806Z,72.20
2019-04-27T21:17:07.835Z,72.10
2019-04-27T21:20:14.000Z,72.50
2019-04-27T21:23:20.899Z,72.40
2019-04-27T21:26:25.960Z,72.30
2019-04-27T21:29:31.223Z,72.20
2019-04-27T21:32:36.176Z,72.30
2019-04-27T21:35:41.149Z,72.20
2019-04-27T21:38:46.170Z,72.40
2019-04-27T21:41:51.860Z,72.30
2019-04-27T21:44:56.842Z,72.60
2019-04-27T21:48:01.874Z,72.80
2019-04-27T21:51:07.122Z,72.90
2019-04-27T21:54:18.712Z,72.80
2019-04-27T21:57:23.949Z,73.00
2019-04-27T22:00:51.348Z,73.10
2019-04-27T22:03:56.476Z,73.00
2019-04-27T22:07:01.601Z,73.30
2019-04-27T22:10:06.686Z,73.40
2019-04-27T22:13:12.115Z,73.50
2019-04-27T22:16:17.055Z,73.90
2019-04-27T22:19:25.340Z,74.20
2019-04-27T22:22:37.396Z,74.30
2019-04-27T22:25:42.465Z,73.90
2019-04-27T22:28:49.501Z,73.50
2019-04-27T22:31:54.307Z,73.90
2019-04-27T22:34:59.419Z,74.10
2019-04-27T22:38:04.382Z,74.40
2019-04-27T22:41:21.393Z,74.50
2019-04-27T22:44:38.154Z,74.90
2019-04-27T22:47:43.779Z,75.10
2019-04-27T22:50:48.724Z,74.90
2019-04-27T22:53:53.853Z,74.80
2019-04-27T22:57:01.726Z,74.90
2019-04-27T23:00:24.305Z,74.70
2019-04-27T23:03:33.014Z,74.40
2019-04-27T23:06:37.897Z,75.40
2019-04-27T23:09:43.424Z,75.50
2019-04-27T23:12:48.541Z,75.50
2019-04-27T23:15:55.428Z,75.60
2019-04-27T23:19:01.805Z,75.20
2019-04-27T23:22:06.860Z,75.40
2019-04-27T23:25:12.409Z,75.50
2019-04-27T23:28:17.527Z,75.20
2019-04-27T23:31:32.053Z,75.40
2019-04-27T23:34:37.000Z,75.20
2019-04-27T23:37:41.953Z,75.10
2019-04-27T23:40:47.369Z,75.00
2019-04-27T23:43:52.331Z,74.90
2019-04-27T23:46:57.401Z,74.40
2019-04-27T23:50:02.630Z,75.00
2019-04-27T23:53:19.425Z,74.90
2019-04-27T23:56:24.337Z,74.60
2019-04-27T23:59:29.299Z,74.80
